createdAt,value
2023-05-14T00:01:09.103Z,98608.70
2023-05-14T00:03:37.845Z,98612.48
2023-05-14T00:06:07.566Z,98618.02
2023-05-14T00:08:36.990Z,98617.86
2023-05-14T00:11:05.229Z,98619.58
2023-05-14T00:13:33.593Z,98622.75
2023-05-14T00:16:03.062Z,98621.20
2023-05-14T00:18:31.429Z,98623.38
2023-05-14T00:20:59.651Z,98620.83
2023-05-14T00:23:27.826Z,98623.02
2023-05-14T00:25:57.726Z,98618.34
2023-05-14T00:28:26.099Z,98620.00
2023-05-14T00:30:54.403Z,98621.14
2023-05-14T00:33:22.571Z,98618.41
2023-05-14T00:35:52.000Z,98613.20
2023-05-14T00:38:20.229Z,98604.34
2023-05-14T00:40:52.879Z,98597.41
2023-05-14T00:43:23.153Z,98594.64
2023-05-14T00:45:55.504Z,98591.91
2023-05-14T00:48:24.899Z,98597.63
2023-05-14T00:50:54.343Z,98597.15
2023-05-14T00:53:49.846Z,98594.42
2023-05-14T00:56:19.871Z,98595.05
2023-05-14T00:58:48.314Z,98592.90
2023-05-14T01:01:17.231Z,98597.69
2023-05-14T01:03:47.348Z,98599.30
2023-05-14T01:06:27.575Z,98590.36
2023-05-14T01:09:23.445Z,98593.95
2023-05-14T01:12:20.922Z,98585.44
2023-05-14T01:15:22.047Z,98580.98
2023-05-14T01:18:15.086Z,98577.09
2023-05-14T01:20:44.976Z,98574.09
2023-05-14T01:23:15.677Z,98581.64
2023-05-14T01:25:45.401Z,98583.05
2023-05-14T01:28:26.289Z,98581.70
2023-05-14T01:31:06.079Z,98576.18
2023-05-14T01:33:36.929Z,98576.95
2023-05-14T01:36:05.755Z,98577.39
2023-05-14T01:38:36.480Z,98572.77
2023-05-14T01:41:07.738Z,98565.81
2023-05-14T01:43:36.794Z,98565.28
2023-05-14T01:46:05.130Z,98561.98
2023-05-14T01:48:34.614Z,98558.02
2023-05-14T01:51:03.183Z,98561.96
2023-05-14T01:53:31.360Z,98560.23
2023-05-14T01:55:59.736Z,98562.59
2023-05-14T01:58:29.547Z,98558.98
2023-05-14T02:00:57.876Z,98557.01
2023-05-14T02:03:26.266Z,98553.30
2023-05-14T02:05:55.088Z,98556.75
2023-05-14T02:08:23.516Z,98558.38
2023-05-14T02:10:51.788Z,98550.92
2023-05-14T02:13:20.238Z,98562.55
2023-05-14T02:15:49.503Z,98563.86
2023-05-14T02:18:17.699Z,98563.77
2023-05-14T02:21:11.145Z,98568.39
2023-05-14T02:23:42.170Z,98563.35
2023-05-14T02:26:12.988Z,98563.30
2023-05-14T02:28:41.624Z,98569.59
2023-05-14T02:31:09.720Z,98569.66
2023-05-14T02:33:38.320Z,98570.73
2023-05-14T02:36:07.065Z,98571.17
2023-05-14T02:38:35.541Z,98572.36
2023-05-14T02:41:03.915Z,98568.14
2023-05-14T02:47:41.588Z,98566.59
2023-05-14T02:50:12.138Z,98566.25
2023-05-14T02:52:40.323Z,98566.31
2023-05-14T02:55:09.137Z,98569.73
2023-05-14T02:57:37.505Z,98566.88
2023-05-14T03:00:06.919Z,98570.11
2023-05-14T03:02:36.327Z,98569.52
2023-05-14T03:05:05.628Z,98571.61
2023-05-14T03:07:34.198Z,98577.01
2023-05-14T03:10:02.504Z,98575.11
2023-05-14T03:12:30.953Z,98577.00
2023-05-14T03:14:59.306Z,98580.59
2023-05-14T03:17:27.725Z,98579.74
2023-05-14T03:19:55.986Z,98582.20
2023-05-14T03:22:24.157Z,98586.98
2023-05-14T03:24:53.453Z,98586.70
2023-05-14T03:27:21.632Z,98582.65
2023-05-14T03:29:50.327Z,98577.71
2023-05-14T03:32:20.047Z,98577.30
2023-05-14T03:34:48.355Z,98578.77
2023-05-14T03:37:17.394Z,98577.60
2023-05-14T03:39:46.065Z,98584.22
2023-05-14T03:42:17.124Z,98590.29
2023-05-14T03:44:45.711Z,98590.71
2023-05-14T03:47:14.276Z,98589.71
2023-05-14T03:49:42.356Z,98592.58
2023-05-14T03:52:11.511Z,98598.73
2023-05-14T03:54:41.454Z,98601.41
2023-05-14T03:57:09.435Z,98604.16
2023-05-14T03:59:37.913Z,98606.28
2023-05-14T04:02:06.286Z,98602.95
2023-05-14T04:04:34.491Z,98601.23
2023-05-14T04:07:07.192Z,98600.72
2023-05-14T04:09:35.420Z,98599.73
2023-05-14T04:12:04.509Z,98600.75
2023-05-14T04:14:32.474Z,98601.54
2023-05-14T04:21:07.752Z,98608.09
2023-05-14T04:23:36.228Z,98606.86
2023-05-14T04:26:05.536Z,98612.26
2023-05-14T04:28:33.553Z,98609.65
2023-05-14T04:31:01.875Z,98610.88
2023-05-14T04:33:30.275Z,98607.33
2023-05-14T04:35:58.731Z,98611.58
2023-05-14T04:38:26.832Z,98606.72
2023-05-14T04:40:55.380Z,98600.91
2023-05-14T04:43:51.194Z,98602.91
2023-05-14T04:46:19.444Z,98605.50
2023-05-14T04:48:50.817Z,98607.59
2023-05-14T04:51:19.296Z,98609.02
2023-05-14T04:53:47.473Z,98611.29
2023-05-14T04:56:15.848Z,98609.64
2023-05-14T04:58:44.130Z,98608.88
2023-05-14T05:01:12.761Z,98612.91
2023-05-14T05:03:41.252Z,98616.39
2023-05-14T05:06:09.568Z,98613.23
2023-05-14T05:08:38.331Z,98602.05
2023-05-14T05:11:06.524Z,98607.16
2023-05-14T05:13:35.214Z,98608.64
2023-05-14T05:16:03.987Z,98606.29
2023-05-14T05:18:33.781Z,98606.16
2023-05-14T05:21:02.311Z,98606.13
2023-05-14T05:23:30.274Z,98602.17
2023-05-14T05:25:58.346Z,98599.94
2023-05-14T05:28:26.465Z,98598.87
2023-05-14T05:30:54.919Z,98594.02
2023-05-14T05:33:26.638Z,98592.17
2023-05-14T05:35:55.133Z,98590.65
2023-05-14T05:38:23.397Z,98588.05
2023-05-14T05:40:51.772Z,98588.66
2023-05-14T05:43:20.862Z,98593.44
2023-05-14T05:45:49.372Z,98590.79
2023-05-14T05:48:18.037Z,98588.45
2023-05-14T05:50:50.433Z,98590.54
2023-05-14T05:53:19.340Z,98594.29
2023-05-14T05:55:47.463Z,98591.38
2023-05-14T05:58:18.221Z,98596.86
2023-05-14T06:00:48.112Z,98606.24
2023-05-14T06:03:16.318Z,98611.20
2023-05-14T06:05:44.396Z,98614.16
2023-05-14T06:08:14.581Z,98619.14
2023-05-14T06:10:42.959Z,98623.71
2023-05-14T06:13:11.565Z,98623.02
2023-05-14T06:15:39.810Z,98623.98
2023-05-14T06:18:08.150Z,98625.41
2023-05-14T06:20:36.465Z,98626.09
2023-05-14T06:23:05.354Z,98629.45
2023-05-14T06:25:34.086Z,98636.39
2023-05-14T06:28:02.585Z,98642.64
2023-05-14T06:30:31.048Z,98645.48
2023-05-14T06:33:00.076Z,98642.67
2023-05-14T06:35:29.247Z,98643.91
2023-05-14T06:37:57.815Z,98640.56
2023-05-14T06:40:26.262Z,98641.52
2023-05-14T06:42:54.531Z,98651.20
2023-05-14T06:45:23.125Z,98652.52
2023-05-14T06:47:51.309Z,98656.96
2023-05-14T06:50:19.657Z,98658.74
2023-05-14T06:52:49.263Z,98657.11
2023-05-14T06:55:17.998Z,98658.67
2023-05-14T06:57:46.958Z,98657.04
2023-05-14T07:00:16.141Z,98654.30
2023-05-14T07:02:44.196Z,98655.75
2023-05-14T07:05:42.476Z,98661.43
2023-05-14T07:08:11.676Z,98662.17
2023-05-14T07:10:41.712Z,98652.23
2023-05-14T07:13:09.982Z,98649.05
2023-05-14T07:15:37.992Z,98650.58
2023-05-14T07:18:08.745Z,98651.27
2023-05-14T07:20:38.082Z,98649.47
2023-05-14T07:23:06.360Z,98655.65
2023-05-14T07:25:34.636Z,98656.84
2023-05-14T07:28:02.900Z,98653.52
2023-05-14T07:30:31.072Z,98654.84
2023-05-14T07:32:59.226Z,98654.11
2023-05-14T07:35:27.328Z,98653.25
2023-05-14T07:37:55.560Z,98650.60
2023-05-14T07:40:27.499Z,98642.01
2023-05-14T07:42:55.946Z,98638.96
2023-05-14T07:45:24.327Z,98638.58
2023-05-14T07:47:52.800Z,98640.67
2023-05-14T07:50:21.478Z,98642.38
2023-05-14T07:52:50.883Z,98640.39
2023-05-14T07:55:19.343Z,98632.58
2023-05-14T07:57:47.697Z,98638.44
2023-05-14T08:00:18.788Z,98636.11
2023-05-14T08:02:46.916Z,98640.25
2023-05-14T08:05:16.152Z,98635.61
2023-05-14T08:07:45.145Z,98635.55
2023-05-14T08:10:13.091Z,98630.38
2023-05-14T08:12:43.957Z,98637.02
2023-05-14T08:15:13.470Z,98635.03
2023-05-14T08:17:41.905Z,98629.08
2023-05-14T08:20:12.880Z,98625.30
2023-05-14T08:22:42.795Z,98629.09
2023-05-14T08:25:11.588Z,98621.09
2023-05-14T08:27:42.112Z,98620.34
2023-05-14T08:30:11.516Z,98619.72
2023-05-14T08:32:39.774Z,98622.91
2023-05-14T08:35:09.079Z,98629.73
2023-05-14T08:37:37.397Z,98625.55
2023-05-14T08:40:08.428Z,98624.98
2023-05-14T08:42:45.580Z,98621.19
2023-05-14T08:45:20.880Z,98619.05
2023-05-14T08:47:51.447Z,98621.92
2023-05-14T08:50:22.921Z,98623.02
2023-05-14T08:52:54.459Z,98623.50
2023-05-14T08:55:30.205Z,98626.71
2023-05-14T08:57:58.375Z,98625.83
2023-05-14T09:00:26.671Z,98627.47
2023-05-14T09:02:57.597Z,98622.55
2023-05-14T09:05:26.478Z,98616.36
2023-05-14T09:07:54.748Z,98620.23
2023-05-14T09:10:23.326Z,98608.61
2023-05-14T09:12:52.320Z,98606.93
2023-05-14T09:15:20.607Z,98608.43
2023-05-14T09:17:49.043Z,98611.96
2023-05-14T09:20:17.122Z,98603.45
2023-05-14T09:22:45.338Z,98598.30
2023-05-14T09:25:13.821Z,98596.21
2023-05-14T09:27:42.320Z,98589.08
2023-05-14T09:30:14.855Z,98588.20
2023-05-14T09:32:44.921Z,98584.59
2023-05-14T09:35:24.007Z,98582.84
2023-05-14T09:37:56.791Z,98585.05
2023-05-14T09:40:25.392Z,98587.96
2023-05-14T09:42:55.071Z,98586.83
2023-05-14T09:45:23.354Z,98581.59
2023-05-14T09:47:54.107Z,98569.80
2023-05-14T09:50:23.336Z,98570.77
2023-05-14T09:52:51.565Z,98583.74
2023-05-14T09:55:22.696Z,98579.17
2023-05-14T09:57:52.406Z,98575.64
2023-05-14T10:00:21.895Z,98578.98
2023-05-14T10:02:53.836Z,98582.86
2023-05-14T10:05:24.280Z,98575.09
2023-05-14T10:07:57.304Z,98572.14
2023-05-14T10:10:30.467Z,98569.54
2023-05-14T10:13:09.231Z,98569.55
2023-05-14T10:15:49.063Z,98571.80
2023-05-14T10:18:23.608Z,98569.91
2023-05-14T10:24:35.271Z,98573.91
2023-05-14T10:27:06.212Z,98569.29
2023-05-14T10:29:37.841Z,98568.84
2023-05-14T10:37:20.905Z,98562.38
2023-05-14T10:40:02.915Z,98564.61
2023-05-14T10:42:38.300Z,98563.61
2023-05-14T10:45:14.846Z,98562.02
2023-05-14T10:47:48.333Z,98565.27
2023-05-14T10:50:18.304Z,98559.31
2023-05-14T10:52:46.736Z,98549.57
2023-05-14T10:55:18.167Z,98540.35
2023-05-14T10:57:47.373Z,98532.95
2023-05-14T11:00:16.283Z,98533.29
2023-05-14T11:02:45.289Z,98526.02
2023-05-14T11:05:17.977Z,98521.23
2023-05-14T11:07:49.503Z,98515.00
2023-05-14T11:10:20.364Z,98514.36
2023-05-14T11:12:52.492Z,98506.75
2023-05-14T11:15:27.735Z,98494.39
2023-05-14T11:17:57.052Z,98492.79
2023-05-14T11:20:25.314Z,98486.71
2023-05-14T11:22:53.618Z,98490.67
2023-05-14T11:25:23.706Z,98496.64
2023-05-14T11:27:52.352Z,98493.93
2023-05-14T11:30:22.748Z,98482.52
2023-05-14T11:32:54.302Z,98479.95
2023-05-14T11:35:23.247Z,98475.66
2023-05-14T11:38:20.807Z,98472.55
2023-05-14T11:41:09.151Z,98468.04
2023-05-14T11:43:37.435Z,98469.42
2023-05-14T11:46:07.171Z,98469.70
2023-05-14T11:48:35.411Z,98468.66
2023-05-14T11:51:05.220Z,98459.61
2023-05-14T11:53:33.512Z,98453.08
2023-05-14T11:56:03.412Z,98457.00
2023-05-14T11:58:34.797Z,98458.29
2023-05-14T12:01:03.314Z,98451.27
2023-05-14T12:03:32.113Z,98442.22
2023-05-14T12:06:02.446Z,98436.29
2023-05-14T12:08:33.231Z,98427.84
2023-05-14T12:11:02.086Z,98414.53
2023-05-14T12:13:32.710Z,98412.77
2023-05-14T12:16:04.121Z,98417.80
2023-05-14T12:18:32.958Z,98414.18
2023-05-14T12:26:42.411Z,98393.67
2023-05-14T12:29:14.781Z,98383.82
2023-05-14T12:31:51.825Z,98388.61
2023-05-14T12:34:20.383Z,98391.77
2023-05-14T12:36:48.551Z,98392.77
2023-05-14T12:39:17.928Z,98386.08
2023-05-14T12:41:46.009Z,98380.88
2023-05-14T12:44:14.051Z,98379.23
2023-05-14T12:46:42.552Z,98375.84
2023-05-14T12:49:11.754Z,98378.86
2023-05-14T12:51:40.225Z,98379.07
2023-05-14T12:54:08.450Z,98383.02
2023-05-14T12:56:39.187Z,98382.24
2023-05-14T12:59:07.405Z,98380.61
2023-05-14T13:01:35.729Z,98378.73
2023-05-14T13:04:06.669Z,98379.37
2023-05-14T13:06:35.299Z,98373.94
2023-05-14T13:09:03.715Z,98364.58
2023-05-14T13:11:32.830Z,98358.92
2023-05-14T13:14:02.690Z,98353.67
2023-05-14T13:16:31.442Z,98348.27
2023-05-14T13:18:59.813Z,98349.67
2023-05-14T13:21:42.767Z,98346.35
2023-05-14T13:24:11.273Z,98339.50
2023-05-14T13:26:39.314Z,98350.19
2023-05-14T13:29:08.615Z,98359.02
2023-05-14T13:31:37.284Z,98363.31
2023-05-14T13:34:05.678Z,98361.13
2023-05-14T13:36:34.216Z,98358.62
2023-05-14T13:39:02.844Z,98348.10
2023-05-14T13:41:35.701Z,98332.83
2023-05-14T13:44:06.156Z,98320.36
2023-05-14T13:46:34.517Z,98304.62
2023-05-14T13:49:08.756Z,98291.42
2023-05-14T13:51:37.126Z,98282.12
2023-05-14T13:54:05.142Z,98278.96
2023-05-14T13:56:33.498Z,98284.66
2023-05-14T13:59:01.632Z,98295.43
2023-05-14T14:01:32.417Z,98300.73
2023-05-14T14:04:01.287Z,98298.48
2023-05-14T14:06:35.284Z,98298.58
2023-05-14T14:09:03.440Z,98301.52
2023-05-14T14:11:31.729Z,98313.09
2023-05-14T14:14:00.412Z,98319.79
2023-05-14T14:16:28.648Z,98307.33
2023-05-14T14:18:58.368Z,98306.55
2023-05-14T14:21:28.006Z,98304.11
2023-05-14T14:24:24.994Z,98296.32
2023-05-14T14:26:53.171Z,98290.55
2023-05-14T14:29:24.000Z,98285.52
2023-05-14T14:31:53.574Z,98273.64
2023-05-14T14:34:22.226Z,98262.08
2023-05-14T14:36:50.642Z,98251.23
2023-05-14T14:39:18.804Z,98244.58
2023-05-14T14:41:48.000Z,98248.11
2023-05-14T14:44:18.704Z,98244.97
2023-05-14T14:46:50.483Z,98238.63
2023-05-14T14:49:19.070Z,98233.27
2023-05-14T14:51:48.722Z,98227.68
2023-05-14T14:54:16.957Z,98226.25
2023-05-14T14:56:46.360Z,98226.40
2023-05-14T14:59:14.594Z,98228.66
2023-05-14T15:01:43.262Z,98227.39
2023-05-14T15:04:12.102Z,98220.82
2023-05-14T15:06:40.384Z,98223.33
2023-05-14T15:09:10.191Z,98225.50
2023-05-14T15:11:38.919Z,98234.45
2023-05-14T15:14:07.409Z,98233.44
2023-05-14T15:16:36.084Z,98229.73
2023-05-14T15:19:04.380Z,98241.52
2023-05-14T15:21:33.002Z,98250.14
2023-05-14T15:24:04.314Z,98243.86
2023-05-14T15:26:35.903Z,98234.35
2023-05-14T15:29:05.205Z,98236.86
2023-05-14T15:31:33.824Z,98244.17
2023-05-14T15:34:02.367Z,98247.58
2023-05-14T15:36:33.205Z,98243.20
2023-05-14T15:39:01.574Z,98231.03
2023-05-14T15:41:33.338Z,98230.89
2023-05-14T15:44:02.229Z,98234.86
2023-05-14T15:46:30.830Z,98238.28
2023-05-14T15:49:00.037Z,98238.08
2023-05-14T15:51:28.447Z,98237.83
2023-05-14T15:53:57.474Z,98246.14
2023-05-14T15:56:26.714Z,98248.45
2023-05-14T15:58:56.998Z,98250.43
2023-05-14T16:01:25.357Z,98249.73
2023-05-14T16:03:54.067Z,98246.14
2023-05-14T16:06:22.742Z,98245.05
2023-05-14T16:08:52.558Z,98248.50
2023-05-14T16:11:21.661Z,98246.22
2023-05-14T16:13:50.443Z,98245.40
2023-05-14T16:16:21.221Z,98243.10
2023-05-14T16:18:50.122Z,98242.81
2023-05-14T16:21:18.852Z,98243.04
2023-05-14T16:23:48.052Z,98239.09
2023-05-14T16:26:16.395Z,98232.02
2023-05-14T16:28:45.296Z,98231.71
2023-05-14T16:31:14.727Z,98233.00
2023-05-14T16:33:43.811Z,98232.51
2023-05-14T16:36:11.959Z,98230.71
2023-05-14T16:38:52.324Z,98233.38
2023-05-14T16:41:29.422Z,98232.23
2023-05-14T16:43:57.892Z,98235.11
2023-05-14T16:46:26.698Z,98233.86
2023-05-14T16:48:55.476Z,98231.20
2023-05-14T16:51:24.834Z,98229.98
2023-05-14T16:53:55.334Z,98230.70
2023-05-14T16:56:27.415Z,98230.36
2023-05-14T16:58:55.791Z,98228.09
2023-05-14T17:01:23.969Z,98224.14
2023-05-14T17:03:52.179Z,98219.16
2023-05-14T17:06:21.731Z,98215.09
2023-05-14T17:08:49.961Z,98207.86
2023-05-14T17:11:18.828Z,98205.85
2023-05-14T17:14:00.994Z,98204.33
2023-05-14T17:16:28.814Z,98201.02
2023-05-14T17:18:56.091Z,98197.66
2023-05-14T17:21:24.471Z,98196.55
2023-05-14T17:23:52.659Z,98199.20
2023-05-14T17:26:21.465Z,98196.17
2023-05-14T17:32:57.299Z,98201.85
2023-05-14T17:35:26.318Z,98202.09
2023-05-14T17:37:54.854Z,98204.45
2023-05-14T17:40:23.133Z,98206.99
2023-05-14T17:42:51.303Z,98210.58
2023-05-14T17:45:24.361Z,98214.23
2023-05-14T17:47:53.077Z,98214.41
2023-05-14T17:50:21.389Z,98219.18
2023-05-14T17:52:49.497Z,98221.64
2023-05-14T17:55:19.974Z,98219.02
2023-05-14T17:57:48.248Z,98215.92
2023-05-14T18:00:18.058Z,98215.61
2023-05-14T18:02:46.500Z,98211.91
2023-05-14T18:05:14.915Z,98215.65
2023-05-14T18:08:10.123Z,98219.20
2023-05-14T18:10:39.324Z,98221.73
2023-05-14T18:13:08.942Z,98232.16
2023-05-14T18:15:37.223Z,98233.45
2023-05-14T18:18:06.022Z,98240.52
2023-05-14T18:20:36.737Z,98241.73
2023-05-14T18:23:04.948Z,98245.64
2023-05-14T18:25:34.136Z,98244.79
2023-05-14T18:28:03.001Z,98242.00
2023-05-14T18:30:31.471Z,98240.19
2023-05-14T18:33:00.216Z,98243.40
2023-05-14T18:35:29.560Z,98251.11
2023-05-14T18:37:58.335Z,98251.60
2023-05-14T18:40:26.616Z,98254.43
2023-05-14T18:43:02.633Z,98256.85
2023-05-14T18:45:31.067Z,98255.81
2023-05-14T18:48:26.563Z,98253.79
2023-05-14T18:50:54.833Z,98251.73
2023-05-14T18:53:22.834Z,98246.10
2023-05-14T18:55:51.387Z,98244.41
2023-05-14T18:58:21.504Z,98245.02
2023-05-14T19:00:49.605Z,98242.47
2023-05-14T19:03:20.940Z,98236.27
2023-05-14T19:05:51.763Z,98236.27
2023-05-14T19:08:20.030Z,98235.92
2023-05-14T19:10:48.667Z,98231.92
2023-05-14T19:13:16.711Z,98230.33
2023-05-14T19:15:45.021Z,98226.98
2023-05-14T19:18:41.627Z,98224.40
2023-05-14T19:21:12.545Z,98223.71
2023-05-14T19:23:42.178Z,98222.55
